sensor_id;sensor_type;location;lat;lon;timestamp;pressure;altitude;pressure_sealevel;temperature;humidity
70730;BME280;58315;53.336;55.932;2023-02-28T00:00:32;99486.66;;;3.84;63.18
70730;BME280;58315;53.336;55.932;2023-02-28T00:02:59;99498.94;;;3.97;63.39
70730;BME280;58315;53.336;55.932;2023-02-28T00:05:27;99497.31;;;3.81;63.63
70730;BME280;58315;53.336;55.932;2023-02-28T00:07:54;99492.78;;;3.98;63.44
70730;BME280;58315;53.336;55.932;2023-02-28T00:10:23;99493.81;;;3.95;63.65
70730;BME280;58315;53.336;55.932;2023-02-28T00:12:54;99482.44;;;4.09;63.75
70730;BME280;58315;53.336;55.932;2023-02-28T00:15:40;99481.09;;;4.03;63.04
70730;BME280;58315;53.336;55.932;2023-02-28T00:18:07;99484.16;;;4.10;63.34
70730;BME280;58315;53.336;55.932;2023-02-28T00:20:33;99481.09;;;4.03;63.18
70730;BME280;58315;53.336;55.932;2023-02-28T00:22:59;99480.16;;;4.04;63.36
70730;BME280;58315;53.336;55.932;2023-02-28T00:25:25;99474.19;;;4.02;63.31
70730;BME280;58315;53.336;55.932;2023-02-28T00:27:51;99476.16;;;3.99;63.12
70730;BME280;58315;53.336;55.932;2023-02-28T00:30:19;99474.53;;;4.10;63.41
70730;BME280;58315;53.336;55.932;2023-02-28T00:32:45;99480.63;;;3.97;63.42
70730;BME280;58315;53.336;55.932;2023-02-28T00:35:12;99474.50;;;3.83;63.45
70730;BME280;58315;53.336;55.932;2023-02-28T00:37:41;99470.53;;;3.78;63.75
70730;BME280;58315;53.336;55.932;2023-02-28T00:40:08;99477.09;;;3.98;63.26
70730;BME280;58315;53.336;55.932;2023-02-28T00:42:35;99469.84;;;3.89;63.85
70730;BME280;58315;53.336;55.932;2023-02-28T00:45:02;99466.09;;;3.93;63.59
70730;BME280;58315;53.336;55.932;2023-02-28T00:47:31;99468.53;;;3.96;62.91
70730;BME280;58315;53.336;55.932;2023-02-28T00:49:57;99464.63;;;3.89;63.21
70730;BME280;58315;53.336;55.932;2023-02-28T00:52:23;99471.84;;;3.98;62.97
70730;BME280;58315;53.336;55.932;2023-02-28T00:54:49;99462.91;;;3.87;63.21
70730;BME280;58315;53.336;55.932;2023-02-28T00:57:15;99464.63;;;3.89;63.02
70730;BME280;58315;53.336;55.932;2023-02-28T00:59:41;99470.56;;;3.91;63.35
70730;BME280;58315;53.336;55.932;2023-02-28T01:02:07;99471.63;;;3.88;63.40
70730;BME280;58315;53.336;55.932;2023-02-28T01:04:32;99471.53;;;3.90;63.30
70730;BME280;58315;53.336;55.932;2023-02-28T01:07:00;99471.91;;;3.83;63.73
70730;BME280;58315;53.336;55.932;2023-02-28T01:09:28;99464.81;;;3.85;63.10
70730;BME280;58315;53.336;55.932;2023-02-28T01:11:54;99463.56;;;3.91;63.28
70730;BME280;58315;53.336;55.932;2023-02-28T01:14:38;99459.09;;;3.66;63.89
70730;BME280;58315;53.336;55.932;2023-02-28T01:17:05;99453.91;;;3.79;63.36
70730;BME280;58315;53.336;55.932;2023-02-28T01:19:31;99449.38;;;3.95;63.16
70730;BME280;58315;53.336;55.932;2023-02-28T01:22:00;99456.72;;;4.03;62.91
70730;BME280;58315;53.336;55.932;2023-02-28T01:24:45;99453.41;;;4.14;62.50
70730;BME280;58315;53.336;55.932;2023-02-28T01:27:12;99454.38;;;3.98;62.51
70730;BME280;58315;53.336;55.932;2023-02-28T01:29:38;99456.91;;;4.00;63.32
70730;BME280;58315;53.336;55.932;2023-02-28T01:32:04;99450.94;;;3.98;62.76
70730;BME280;58315;53.336;55.932;2023-02-28T01:34:30;99462.16;;;4.00;62.75
70730;BME280;58315;53.336;55.932;2023-02-28T01:36:56;99457.00;;;3.98;62.85
70730;BME280;58315;53.336;55.932;2023-02-28T01:39:25;99450.09;;;3.97;63.26
70730;BME280;58315;53.336;55.932;2023-02-28T01:41:52;99452.84;;;3.96;62.88
70730;BME280;58315;53.336;55.932;2023-02-28T01:44:58;99458.78;;;3.98;62.46
70730;BME280;58315;53.336;55.932;2023-02-28T01:47:29;99453.16;;;4.04;63.47
70730;BME280;58315;53.336;55.932;2023-02-28T01:49:57;99447.81;;;4.05;62.86
70730;BME280;58315;53.336;55.932;2023-02-28T01:52:23;99447.75;;;4.07;62.44
70730;BME280;58315;53.336;55.932;2023-02-28T01:54:55;99455.13;;;4.00;62.43
70730;BME280;58315;53.336;55.932;2023-02-28T01:57:26;99450.53;;;4.04;62.99
70730;BME280;58315;53.336;55.932;2023-02-28T02:00:00;99440.53;;;4.10;62.33
70730;BME280;58315;53.336;55.932;2023-02-28T02:02:47;99446.53;;;4.25;62.71
70730;BME280;58315;53.336;55.932;2023-02-28T02:05:18;99452.47;;;4.27;61.78
70730;BME280;58315;53.336;55.932;2023-02-28T02:07:47;99452.81;;;4.35;61.35
70730;BME280;58315;53.336;55.932;2023-02-28T02:18:39;99447.31;;;4.13;61.63
70730;BME280;58315;53.336;55.932;2023-02-28T02:32:27;99451.25;;;4.46;60.84
70730;BME280;58315;53.336;55.932;2023-02-28T02:37:38;99446.72;;;4.35;60.77
70730;BME280;58315;53.336;55.932;2023-02-28T02:45:45;99438.28;;;4.44;60.60
70730;BME280;58315;53.336;55.932;2023-02-28T02:48:16;99432.25;;;4.17;61.04
70730;BME280;58315;53.336;55.932;2023-02-28T02:50:48;99435.75;;;4.17;60.82
70730;BME280;58315;53.336;55.932;2023-02-28T02:53:18;99432.91;;;4.20;60.87
70730;BME280;58315;53.336;55.932;2023-02-28T02:55:48;99433.84;;;4.19;60.63
70730;BME280;58315;53.336;55.932;2023-02-28T02:58:28;99440.16;;;4.29;60.54
70730;BME280;58315;53.336;55.932;2023-02-28T03:01:00;99426.66;;;4.35;60.35
70730;BME280;58315;53.336;55.932;2023-02-28T03:03:29;99430.13;;;4.36;59.85
70730;BME280;58315;53.336;55.932;2023-02-28T03:05:59;99422.66;;;4.30;59.60
70730;BME280;58315;53.336;55.932;2023-02-28T03:08:26;99434.59;;;4.34;60.16
70730;BME280;58315;53.336;55.932;2023-02-28T03:11:13;99432.41;;;4.41;59.43
70730;BME280;58315;53.336;55.932;2023-02-28T03:16:33;99433.06;;;4.44;59.37
70730;BME280;58315;53.336;55.932;2023-02-28T03:24:45;99436.50;;;4.32;59.18
70730;BME280;58315;53.336;55.932;2023-02-28T03:27:24;99436.59;;;4.30;59.77
70730;BME280;58315;53.336;55.932;2023-02-28T03:30:05;99433.75;;;4.33;59.30
70730;BME280;58315;53.336;55.932;2023-02-28T03:32:42;99440.56;;;4.36;59.37
70730;BME280;58315;53.336;55.932;2023-02-28T03:35:15;99437.28;;;4.20;58.81
70730;BME280;58315;53.336;55.932;2023-02-28T03:37:51;99441.94;;;4.42;59.51
70730;BME280;58315;53.336;55.932;2023-02-28T03:40:21;99433.06;;;4.44;58.87
70730;BME280;58315;53.336;55.932;2023-02-28T03:42:53;99427.53;;;4.62;58.57
70730;BME280;58315;53.336;55.932;2023-02-28T03:45:41;99439.03;;;4.59;58.38
70730;BME280;58315;53.336;55.932;2023-02-28T03:48:19;99436.00;;;4.65;57.93
70730;BME280;58315;53.336;55.932;2023-02-28T03:50:51;99447.38;;;4.64;58.23
70730;BME280;58315;53.336;55.932;2023-02-28T03:53:30;99438.50;;;4.67;57.41
70730;BME280;58315;53.336;55.932;2023-02-28T03:56:03;99446.31;;;4.41;57.66
70730;BME280;58315;53.336;55.932;2023-02-28T03:58:56;99455.88;;;4.55;57.78
70730;BME280;58315;53.336;55.932;2023-02-28T04:01:28;99452.41;;;4.67;57.89
70730;BME280;58315;53.336;55.932;2023-02-28T04:03:56;99448.44;;;4.74;57.62
70730;BME280;58315;53.336;55.932;2023-02-28T04:06:22;99457.38;;;4.72;57.17
70730;BME280;58315;53.336;55.932;2023-02-28T04:08:49;99461.53;;;4.74;57.47
70730;BME280;58315;53.336;55.932;2023-02-28T04:11:26;99463.94;;;4.77;57.04
70730;BME280;58315;53.336;55.932;2023-02-28T04:13:54;99457.44;;;4.70;56.96
70730;BME280;58315;53.336;55.932;2023-02-28T04:16:21;99470.84;;;4.78;56.27
70730;BME280;58315;53.336;55.932;2023-02-28T04:18:47;99475.88;;;4.81;56.04
70730;BME280;58315;53.336;55.932;2023-02-28T04:21:13;99461.84;;;4.82;55.63
70730;BME280;58315;53.336;55.932;2023-02-28T04:23:39;99461.63;;;4.86;54.95
70730;BME280;58315;53.336;55.932;2023-02-28T04:26:06;99458.72;;;4.77;54.81
70730;BME280;58315;53.336;55.932;2023-02-28T04:28:32;99452.00;;;4.60;54.85
70730;BME280;58315;53.336;55.932;2023-02-28T04:31:01;99440.16;;;4.68;54.86
70730;BME280;58315;53.336;55.932;2023-02-28T04:33:29;99448.03;;;4.68;54.50
70730;BME280;58315;53.336;55.932;2023-02-28T04:36:03;99455.69;;;4.58;53.96
70730;BME280;58315;53.336;55.932;2023-02-28T04:38:33;99449.97;;;4.39;54.10
70730;BME280;58315;53.336;55.932;2023-02-28T04:40:59;99444.53;;;4.29;53.92
70730;BME280;58315;53.336;55.932;2023-02-28T04:43:34;99449.19;;;4.51;53.57
70730;BME280;58315;53.336;55.932;2023-02-28T04:46:02;99453.06;;;4.58;53.81
70730;BME280;58315;53.336;55.932;2023-02-28T04:48:30;99442.06;;;4.66;53.48
70730;BME280;58315;53.336;55.932;2023-02-28T04:51:05;99435.44;;;4.86;53.57
70730;BME280;58315;53.336;55.932;2023-02-28T04:53:38;99434.63;;;4.98;53.23
70730;BME280;58315;53.336;55.932;2023-02-28T04:56:17;99435.03;;;4.92;52.79
70730;BME280;58315;53.336;55.932;2023-02-28T04:58:54;99445.41;;;4.68;52.78
70730;BME280;58315;53.336;55.932;2023-02-28T05:01:22;99446.97;;;4.45;53.46
70730;BME280;58315;53.336;55.932;2023-02-28T05:03:49;99459.59;;;4.25;54.01
70730;BME280;58315;53.336;55.932;2023-02-28T05:06:15;99471.13;;;3.96;54.31
70730;BME280;58315;53.336;55.932;2023-02-28T05:08:42;99468.78;;;3.64;55.51
70730;BME280;58315;53.336;55.932;2023-02-28T05:11:14;99467.31;;;3.60;54.60
70730;BME280;58315;53.336;55.932;2023-02-28T05:13:43;99468.59;;;3.40;54.89
70730;BME280;58315;53.336;55.932;2023-02-28T05:16:12;99471.28;;;3.24;55.05
70730;BME280;58315;53.336;55.932;2023-02-28T05:18:39;99481.75;;;3.10;54.22
70730;BME280;58315;53.336;55.932;2023-02-28T05:21:05;99483.63;;;3.22;52.89
70730;BME280;58315;53.336;55.932;2023-02-28T05:23:32;99492.94;;;2.98;52.50
70730;BME280;58315;53.336;55.932;2023-02-28T05:25:58;99495.25;;;3.17;52.73
70730;BME280;58315;53.336;55.932;2023-02-28T05:28:24;99506.53;;;2.88;52.42
70730;BME280;58315;53.336;55.932;2023-02-28T05:30:50;99507.47;;;2.87;52.74
70730;BME280;58315;53.336;55.932;2023-02-28T05:33:16;99501.13;;;3.06;52.60
70730;BME280;58315;53.336;55.932;2023-02-28T05:35:44;99494.97;;;3.35;51.60
70730;BME280;58315;53.336;55.932;2023-02-28T05:38:13;99488.06;;;3.49;50.73
70730;BME280;58315;53.336;55.932;2023-02-28T05:40:42;99496.19;;;3.44;50.67
70730;BME280;58315;53.336;55.932;2023-02-28T05:43:10;99502.47;;;3.69;50.30
70730;BME280;58315;53.336;55.932;2023-02-28T05:45:37;99510.09;;;3.86;49.75
70730;BME280;58315;53.336;55.932;2023-02-28T05:48:03;99507.66;;;3.83;49.83
70730;BME280;58315;53.336;55.932;2023-02-28T05:50:48;99514.84;;;3.79;48.76
70730;BME280;58315;53.336;55.932;2023-02-28T05:53:13;99526.75;;;3.71;49.54
70730;BME280;58315;53.336;55.932;2023-02-28T05:55:39;99527.34;;;3.89;49.03
70730;BME280;58315;53.336;55.932;2023-02-28T05:58:06;99521.34;;;4.01;49.27
70730;BME280;58315;53.336;55.932;2023-02-28T06:00:32;99524.34;;;3.95;49.03
70730;BME280;58315;53.336;55.932;2023-02-28T06:02:58;99523.47;;;3.67;48.74
70730;BME280;58315;53.336;55.932;2023-02-28T06:05:27;99506.94;;;3.81;49.26
70730;BME280;58315;53.336;55.932;2023-02-28T06:07:53;99509.22;;;4.00;49.18
70730;BME280;58315;53.336;55.932;2023-02-28T06:10:19;99505.66;;;4.28;49.16
70730;BME280;58315;53.336;55.932;2023-02-28T06:12:45;99512.56;;;4.42;49.74
70730;BME280;58315;53.336;55.932;2023-02-28T06:15:12;99513.31;;;4.44;49.26
70730;BME280;58315;53.336;55.932;2023-02-28T06:17:43;99509.78;;;3.91;48.01
70730;BME280;58315;53.336;55.932;2023-02-28T06:20:11;99512.69;;;3.45;47.76
70730;BME280;58315;53.336;55.932;2023-02-28T06:22:39;99505.81;;;3.15;48.20
70730;BME280;58315;53.336;55.932;2023-02-28T06:25:06;99515.50;;;2.99;48.26
70730;BME280;58315;53.336;55.932;2023-02-28T06:27:33;99499.16;;;2.81;48.78
70730;BME280;58315;53.336;55.932;2023-02-28T06:29:59;99509.13;;;2.88;48.99
70730;BME280;58315;53.336;55.932;2023-02-28T06:32:25;99499.88;;;2.54;48.92
70730;BME280;58315;53.336;55.932;2023-02-28T06:34:54;99506.31;;;2.77;49.94
70730;BME280;58315;53.336;55.932;2023-02-28T06:37:20;99495.06;;;2.91;49.43
70730;BME280;58315;53.336;55.932;2023-02-28T06:39:46;99503.75;;;3.34;48.38
70730;BME280;58315;53.336;55.932;2023-02-28T06:42:12;99488.81;;;3.36;47.75
70730;BME280;58315;53.336;55.932;2023-02-28T06:44:41;99484.34;;;3.38;47.11
70730;BME280;58315;53.336;55.932;2023-02-28T06:47:11;99481.53;;;3.27;47.35
70730;BME280;58315;53.336;55.932;2023-02-28T06:49:37;99481.53;;;3.42;47.75
70730;BME280;58315;53.336;55.932;2023-02-28T06:52:05;99473.69;;;3.56;47.57
70730;BME280;58315;53.336;55.932;2023-02-28T06:54:31;99478.03;;;3.97;46.71
70730;BME280;58315;53.336;55.932;2023-02-28T06:56:57;99486.34;;;4.16;45.66
70730;BME280;58315;53.336;55.932;2023-02-28T06:59:27;99476.97;;;4.26;45.71
70730;BME280;58315;53.336;55.932;2023-02-28T07:01:52;99477.72;;;4.41;46.38
70730;BME280;58315;53.336;55.932;2023-02-28T07:04:21;99480.66;;;4.37;45.96
70730;BME280;58315;53.336;55.932;2023-02-28T07:06:51;99479.03;;;4.61;45.69
70730;BME280;58315;53.336;55.932;2023-02-28T07:09:17;99481.81;;;4.45;44.86
70730;BME280;58315;53.336;55.932;2023-02-28T07:11:44;99488.91;;;4.30;45.25
70730;BME280;58315;53.336;55.932;2023-02-28T07:14:10;99477.94;;;3.71;45.39
70730;BME280;58315;53.336;55.932;2023-02-28T07:16:36;99476.00;;;3.60;46.38
70730;BME280;58315;53.336;55.932;2023-02-28T07:19:02;99479.13;;;3.66;46.04
70730;BME280;58315;53.336;55.932;2023-02-28T07:21:28;99475.91;;;3.89;46.50
70730;BME280;58315;53.336;55.932;2023-02-28T07:23:55;99479.69;;;4.25;45.58
70730;BME280;58315;53.336;55.932;2023-02-28T07:26:22;99483.78;;;4.42;45.88
70730;BME280;58315;53.336;55.932;2023-02-28T07:28:49;99488.22;;;4.54;45.40
70730;BME280;58315;53.336;55.932;2023-02-28T07:31:16;99480.28;;;4.81;44.95
70730;BME280;58315;53.336;55.932;2023-02-28T07:33:43;99477.88;;;4.91;44.79
70730;BME280;58315;53.336;55.932;2023-02-28T07:36:12;99480.16;;;5.08;44.56
70730;BME280;58315;53.336;55.932;2023-02-28T07:38:45;99487.97;;;5.33;44.77
70730;BME280;58315;53.336;55.932;2023-02-28T07:41:15;99480.16;;;4.82;44.00
70730;BME280;58315;53.336;55.932;2023-02-28T07:43:42;99477.31;;;4.60;44.00
70730;BME280;58315;53.336;55.932;2023-02-28T07:46:11;99455.97;;;4.92;45.00
70730;BME280;58315;53.336;55.932;2023-02-28T07:48:38;99457.84;;;4.90;44.17
70730;BME280;58315;53.336;55.932;2023-02-28T07:51:04;99453.34;;;5.17;45.04
70730;BME280;58315;53.336;55.932;2023-02-28T07:53:31;99460.03;;;5.21;43.88
70730;BME280;58315;53.336;55.932;2023-02-28T07:55:59;99464.78;;;5.16;44.05
70730;BME280;58315;53.336;55.932;2023-02-28T07:58:26;99470.44;;;5.10;43.63
70730;BME280;58315;53.336;55.932;2023-02-28T08:00:52;99478.94;;;4.88;43.95
70730;BME280;58315;53.336;55.932;2023-02-28T08:03:19;99468.34;;;5.02;44.47
70730;BME280;58315;53.336;55.932;2023-02-28T08:05:46;99457.63;;;5.18;44.68
70730;BME280;58315;53.336;55.932;2023-02-28T08:08:12;99454.22;;;5.05;44.60
70730;BME280;58315;53.336;55.932;2023-02-28T08:10:38;99450.38;;;5.35;44.53
70730;BME280;58315;53.336;55.932;2023-02-28T08:13:04;99435.91;;;5.66;44.16
70730;BME280;58315;53.336;55.932;2023-02-28T08:15:29;99422.78;;;5.05;43.11
70730;BME280;58315;53.336;55.932;2023-02-28T08:17:56;99415.53;;;4.96;44.33
70730;BME280;58315;53.336;55.932;2023-02-28T08:20:25;99416.91;;;4.89;44.40
70730;BME280;58315;53.336;55.932;2023-02-28T08:22:54;99416.00;;;4.51;44.65
70730;BME280;58315;53.336;55.932;2023-02-28T08:25:20;99428.66;;;4.70;44.94
70730;BME280;58315;53.336;55.932;2023-02-28T08:27:46;99430.13;;;4.74;44.56
70730;BME280;58315;53.336;55.932;2023-02-28T08:30:14;99429.91;;;4.90;44.36
70730;BME280;58315;53.336;55.932;2023-02-28T08:32:40;99432.50;;;5.16;44.83
70730;BME280;58315;53.336;55.932;2023-02-28T08:35:09;99421.97;;;5.28;43.59
70730;BME280;58315;53.336;55.932;2023-02-28T08:37:38;99413.97;;;5.43;43.54
70730;BME280;58315;53.336;55.932;2023-02-28T08:40:05;99397.69;;;5.50;43.49
70730;BME280;58315;53.336;55.932;2023-02-28T08:42:32;99400.28;;;5.63;43.60
70730;BME280;58315;53.336;55.932;2023-02-28T08:44:58;99410.16;;;5.60;43.74
70730;BME280;58315;53.336;55.932;2023-02-28T08:47:24;99405.53;;;5.63;42.95
70730;BME280;58315;53.336;55.932;2023-02-28T08:49:51;99402.53;;;5.44;43.93
70730;BME280;58315;53.336;55.932;2023-02-28T08:52:17;99405.97;;;5.20;44.38
70730;BME280;58315;53.336;55.932;2023-02-28T08:54:43;99405.28;;;5.05;44.14
70730;BME280;58315;53.336;55.932;2023-02-28T08:57:08;99400.34;;;5.01;44.45
70730;BME280;58315;53.336;55.932;2023-02-28T08:59:34;99385.50;;;5.01;44.64
70730;BME280;58315;53.336;55.932;2023-02-28T09:02:00;99390.75;;;5.25;44.11
70730;BME280;58315;53.336;55.932;2023-02-28T09:04:26;99390.41;;;5.43;44.88
70730;BME280;58315;53.336;55.932;2023-02-28T09:06:52;99390.47;;;5.78;43.82
70730;BME280;58315;53.336;55.932;2023-02-28T09:09:18;99385.97;;;5.43;43.35
70730;BME280;58315;53.336;55.932;2023-02-28T09:11:44;99392.22;;;5.29;43.90
70730;BME280;58315;53.336;55.932;2023-02-28T09:14:10;99386.94;;;5.42;43.17
70730;BME280;58315;53.336;55.932;2023-02-28T09:16:36;99388.22;;;5.61;43.71
70730;BME280;58315;53.336;55.932;2023-02-28T09:19:02;99385.47;;;5.62;43.10
70730;BME280;58315;53.336;55.932;2023-02-28T09:21:31;99377.41;;;5.65;44.22
70730;BME280;58315;53.336;55.932;2023-02-28T09:23:57;99369.41;;;5.19;43.86
70730;BME280;58315;53.336;55.932;2023-02-28T09:26:25;99370.53;;;5.27;44.30
70730;BME280;58315;53.336;55.932;2023-02-28T09:28:52;99374.41;;;5.35;43.65
70730;BME280;58315;53.336;55.932;2023-02-28T09:31:25;99375.22;;;5.35;43.38
70730;BME280;58315;53.336;55.932;2023-02-28T09:33:56;99371.09;;;5.44;43.82
70730;BME280;58315;53.336;55.932;2023-02-28T09:36:23;99371.97;;;5.55;43.77
70730;BME280;58315;53.336;55.932;2023-02-28T09:38:49;99374.78;;;5.65;44.02
70730;BME280;58315;53.336;55.932;2023-02-28T09:41:39;99368.19;;;5.84;43.69
70730;BME280;58315;53.336;55.932;2023-02-28T09:47:36;99362.00;;;5.61;43.32
70730;BME280;58315;53.336;55.932;2023-02-28T09:50:33;99355.44;;;5.31;43.57
70730;BME280;58315;53.336;55.932;2023-02-28T09:55:57;99351.00;;;5.07;44.33
70730;BME280;58315;53.336;55.932;2023-02-28T09:58:41;99344.56;;;4.75;44.45
70730;BME280;58315;53.336;55.932;2023-02-28T10:01:19;99343.97;;;5.08;45.07
70730;BME280;58315;53.336;55.932;2023-02-28T10:03:56;99342.72;;;5.14;44.24
70730;BME280;58315;53.336;55.932;2023-02-28T10:06:33;99332.34;;;5.12;44.53
70730;BME280;58315;53.336;55.932;2023-02-28T10:09:11;99327.47;;;5.19;44.06
70730;BME280;58315;53.336;55.932;2023-02-28T10:11:40;99325.03;;;5.04;44.22
70730;BME280;58315;53.336;55.932;2023-02-28T10:14:28;99329.06;;;5.21;44.30
70730;BME280;58315;53.336;55.932;2023-02-28T10:16:58;99319.34;;;5.11;44.17
70730;BME280;58315;53.336;55.932;2023-02-28T10:22:03;99321.53;;;4.80;44.69
70730;BME280;58315;53.336;55.932;2023-02-28T10:24:35;99308.78;;;4.75;45.14
70730;BME280;58315;53.336;55.932;2023-02-28T10:27:15;99309.63;;;4.63;45.42
70730;BME280;58315;53.336;55.932;2023-02-28T10:29:50;99306.94;;;4.65;45.14
70730;BME280;58315;53.336;55.932;2023-02-28T10:32:35;99293.72;;;4.66;45.83
70730;BME280;58315;53.336;55.932;2023-02-28T10:37:41;99291.22;;;4.52;45.79
70730;BME280;58315;53.336;55.932;2023-02-28T10:43:06;99278.88;;;4.54;45.68
70730;BME280;58315;53.336;55.932;2023-02-28T10:46:04;99272.63;;;4.44;45.43
70730;BME280;58315;53.336;55.932;2023-02-28T10:51:14;99269.19;;;4.18;46.29
70730;BME280;58315;53.336;55.932;2023-02-28T10:53:48;99271.59;;;4.21;46.15
70730;BME280;58315;53.336;55.932;2023-02-28T10:56:20;99273.69;;;4.16;46.47
70730;BME280;58315;53.336;55.932;2023-02-28T10:59:02;99273.47;;;3.93;47.10
70730;BME280;58315;53.336;55.932;2023-02-28T11:01:42;99263.31;;;3.76;47.18
70730;BME280;58315;53.336;55.932;2023-02-28T11:06:48;99261.22;;;3.68;47.03
70730;BME280;58315;53.336;55.932;2023-02-28T11:09:33;99254.34;;;3.67;46.93
70730;BME280;58315;53.336;55.932;2023-02-28T11:12:02;99254.41;;;3.66;46.94
70730;BME280;58315;53.336;55.932;2023-02-28T11:14:40;99257.69;;;3.82;46.93
70730;BME280;58315;53.336;55.932;2023-02-28T11:17:24;99256.41;;;3.87;46.78
70730;BME280;58315;53.336;55.932;2023-02-28T11:19:54;99250.88;;;3.79;46.76
70730;BME280;58315;53.336;55.932;2023-02-28T11:22:36;99247.66;;;3.89;47.02
70730;BME280;58315;53.336;55.932;2023-02-28T11:28:01;99265.94;;;3.63;46.63
70730;BME280;58315;53.336;55.932;2023-02-28T11:30:41;99259.41;;;3.43;47.26
70730;BME280;58315;53.336;55.932;2023-02-28T11:33:25;99252.84;;;3.50;47.07
70730;BME280;58315;53.336;55.932;2023-02-28T11:36:08;99245.22;;;3.60;47.49
70730;BME280;58315;53.336;55.932;2023-02-28T11:38:39;99247.59;;;3.50;47.52
70730;BME280;58315;53.336;55.932;2023-02-28T11:41:16;99247.75;;;3.22;47.69
70730;BME280;58315;53.336;55.932;2023-02-28T11:47:09;99243.50;;;2.94;48.63
70730;BME280;58315;53.336;55.932;2023-02-28T11:52:43;99225.81;;;2.84;48.98
70730;BME280;58315;53.336;55.932;2023-02-28T11:55:16;99227.09;;;2.92;49.27
70730;BME280;58315;53.336;55.932;2023-02-28T11:58:14;99218.22;;;2.67;49.28
70730;BME280;58315;53.336;55.932;2023-02-28T12:03:28;99212.59;;;2.46;49.61
70730;BME280;58315;53.336;55.932;2023-02-28T12:06:22;99213.25;;;2.35;50.14
70730;BME280;58315;53.336;55.932;2023-02-28T12:14:55;99202.16;;;2.73;49.59
70730;BME280;58315;53.336;55.932;2023-02-28T12:17:43;99195.59;;;2.68;49.86
70730;BME280;58315;53.336;55.932;2023-02-28T12:23:25;99189.31;;;2.70;50.07
70730;BME280;58315;53.336;55.932;2023-02-28T12:28:54;99186.31;;;2.76;50.52
70730;BME280;58315;53.336;55.932;2023-02-28T12:31:48;99186.13;;;2.79;50.84
70730;BME280;58315;53.336;55.932;2023-02-28T12:34:19;99181.06;;;2.63;50.16
70730;BME280;58315;53.336;55.932;2023-02-28T12:36:47;99187.88;;;2.52;50.42
70730;BME280;58315;53.336;55.932;2023-02-28T12:39:23;99177.38;;;2.53;50.81
70730;BME280;58315;53.336;55.932;2023-02-28T12:41:55;99168.59;;;2.54;50.60
70730;BME280;58315;53.336;55.932;2023-02-28T12:47:03;99155.66;;;2.53;50.99
70730;BME280;58315;53.336;55.932;2023-02-28T12:49:34;99160.59;;;2.57;50.36
70730;BME280;58315;53.336;55.932;2023-02-28T12:52:04;99154.59;;;2.28;50.39
70730;BME280;58315;53.336;55.932;2023-02-28T12:54:37;99164.94;;;2.15;50.78
70730;BME280;58315;53.336;55.932;2023-02-28T12:57:10;99152.41;;;2.08;51.08
70730;BME280;58315;53.336;55.932;2023-02-28T12:59:49;99163.72;;;2.35;51.09
70730;BME280;58315;53.336;55.932;2023-02-28T13:08:24;99146.94;;;2.39;51.05
70730;BME280;58315;53.336;55.932;2023-02-28T13:10:53;99138.78;;;2.31;51.49
70730;BME280;58315;53.336;55.932;2023-02-28T13:13:25;99134.09;;;2.36;51.62
70730;BME280;58315;53.336;55.932;2023-02-28T13:18:47;99139.53;;;2.19;52.01
70730;BME280;58315;53.336;55.932;2023-02-28T13:21:27;99138.88;;;2.15;52.48
70730;BME280;58315;53.336;55.932;2023-02-28T13:40:22;99106.84;;;2.28;52.63
70730;BME280;58315;53.336;55.932;2023-02-28T13:42:52;99110.88;;;2.05;52.27
70730;BME280;58315;53.336;55.932;2023-02-28T13:45:26;99112.09;;;2.13;52.06
70730;BME280;58315;53.336;55.932;2023-02-28T13:47:58;99109.22;;;2.04;51.62
70730;BME280;58315;53.336;55.932;2023-02-28T13:58:49;99084.63;;;2.08;51.56
70730;BME280;58315;53.336;55.932;2023-02-28T14:01:24;99084.28;;;2.00;51.74
70730;BME280;58315;53.336;55.932;2023-02-28T14:06:53;99073.97;;;1.98;52.34
70730;BME280;58315;53.336;55.932;2023-02-28T14:12:52;99070.53;;;2.25;52.27
70730;BME280;58315;53.336;55.932;2023-02-28T14:15:36;99066.91;;;2.27;52.11
70730;BME280;58315;53.336;55.932;2023-02-28T14:21:01;99063.16;;;2.31;51.88
70730;BME280;58315;53.336;55.932;2023-02-28T14:35:35;99059.28;;;2.24;52.77
70730;BME280;58315;53.336;55.932;2023-02-28T14:38:08;99048.41;;;2.17;53.38
70730;BME280;58315;53.336;55.932;2023-02-28T14:40:40;99046.75;;;2.16;53.04
70730;BME280;58315;53.336;55.932;2023-02-28T14:43:23;99042.16;;;2.20;53.22
70730;BME280;58315;53.336;55.932;2023-02-28T14:45:55;99036.84;;;2.22;53.39
70730;BME280;58315;53.336;55.932;2023-02-28T14:48:23;99041.59;;;2.15;53.55
70730;BME280;58315;53.336;55.932;2023-02-28T14:50:58;99037.41;;;2.27;53.56
70730;BME280;58315;53.336;55.932;2023-02-28T14:53:29;99037.41;;;2.27;53.81
70730;BME280;58315;53.336;55.932;2023-02-28T14:55:55;99023.16;;;2.18;53.69
70730;BME280;58315;53.336;55.932;2023-02-28T14:58:27;99026.75;;;2.30;53.67
70730;BME280;58315;53.336;55.932;2023-02-28T15:00:56;99023.88;;;2.34;53.29
70730;BME280;58315;53.336;55.932;2023-02-28T15:03:37;99024.06;;;2.31;52.80
70730;BME280;58315;53.336;55.932;2023-02-28T15:06:06;99020.69;;;2.29;53.21
70730;BME280;58315;53.336;55.932;2023-02-28T15:08:38;99016.09;;;2.20;53.17
70730;BME280;58315;53.336;55.932;2023-02-28T15:11:06;99008.97;;;2.09;53.35
70730;BME280;58315;53.336;55.932;2023-02-28T15:13:42;99005.53;;;2.09;53.65
70730;BME280;58315;53.336;55.932;2023-02-28T15:16:13;99003.19;;;2.04;53.72
70730;BME280;58315;53.336;55.932;2023-02-28T15:18:49;98997.22;;;2.16;53.78
70730;BME280;58315;53.336;55.932;2023-02-28T15:21:21;98994.16;;;2.10;53.67
70730;BME280;58315;53.336;55.932;2023-02-28T15:23:56;98989.09;;;2.21;54.14
70730;BME280;58315;53.336;55.932;2023-02-28T15:26:36;98989.63;;;2.26;54.18
70730;BME280;58315;53.336;55.932;2023-02-28T15:29:19;98984.06;;;2.18;53.77
70730;BME280;58315;53.336;55.932;2023-02-28T15:31:49;98981.84;;;2.12;53.53
70730;BME280;58315;53.336;55.932;2023-02-28T15:34:20;98972.19;;;2.14;53.95
70730;BME280;58315;53.336;55.932;2023-02-28T15:36:49;98965.00;;;2.17;53.98